sensor_id;sensor_type;location;lat;lon;timestamp;P1;durP1;ratioP1;P2;durP2;ratioP2
65896;SDS011;52677;50.898;10.854;2022-12-10T00:01:33;40.70;;;18.52;;
65896;SDS011;52677;50.898;10.854;2022-12-10T00:03:34;43.30;;;19.50;;
65896;SDS011;52677;50.898;10.854;2022-12-10T00:05:35;43.38;;;20.30;;
65896;SDS011;52677;50.898;10.854;2022-12-10T00:07:35;40.42;;;17.77;;
65896;SDS011;52677;50.898;10.854;2022-12-10T00:09:36;37.97;;;17.65;;
65896;SDS011;52677;50.898;10.854;2022-12-10T00:11:36;37.92;;;17.42;;
65896;SDS011;52677;50.898;10.854;2022-12-10T00:13:37;39.97;;;18.52;;
65896;SDS011;52677;50.898;10.854;2022-12-10T00:15:38;39.33;;;18.33;;
65896;SDS011;52677;50.898;10.854;2022-12-10T00:17:38;40.72;;;18.52;;
65896;SDS011;52677;50.898;10.854;2022-12-10T00:19:38;38.47;;;16.80;;
65896;SDS011;52677;50.898;10.854;2022-12-10T00:21:39;35.35;;;16.45;;
65896;SDS011;52677;50.898;10.854;2022-12-10T00:23:40;33.72;;;16.77;;
65896;SDS011;52677;50.898;10.854;2022-12-10T00:25:40;42.72;;;16.52;;
65896;SDS011;52677;50.898;10.854;2022-12-10T00:27:40;42.97;;;17.52;;
65896;SDS011;52677;50.898;10.854;2022-12-10T00:29:41;42.97;;;16.33;;
65896;SDS011;52677;50.898;10.854;2022-12-10T00:31:41;42.55;;;16.80;;
65896;SDS011;52677;50.898;10.854;2022-12-10T00:33:42;42.45;;;16.52;;
65896;SDS011;52677;50.898;10.854;2022-12-10T00:35:43;41.00;;;17.38;;
65896;SDS011;52677;50.898;10.854;2022-12-10T00:37:43;40.65;;;15.75;;
65896;SDS011;52677;50.898;10.854;2022-12-10T00:39:44;39.97;;;17.48;;
65896;SDS011;52677;50.898;10.854;2022-12-10T00:41:44;39.17;;;16.45;;
65896;SDS011;52677;50.898;10.854;2022-12-10T00:43:45;45.80;;;16.63;;
65896;SDS011;52677;50.898;10.854;2022-12-10T00:45:45;43.05;;;17.83;;
65896;SDS011;52677;50.898;10.854;2022-12-10T00:47:45;40.40;;;17.92;;
65896;SDS011;52677;50.898;10.854;2022-12-10T00:49:46;37.42;;;14.75;;
65896;SDS011;52677;50.898;10.854;2022-12-10T00:51:46;37.30;;;16.17;;
65896;SDS011;52677;50.898;10.854;2022-12-10T00:53:47;44.60;;;18.23;;
65896;SDS011;52677;50.898;10.854;2022-12-10T00:55:49;39.60;;;17.13;;
65896;SDS011;52677;50.898;10.854;2022-12-10T00:57:49;45.38;;;17.30;;
65896;SDS011;52677;50.898;10.854;2022-12-10T00:59:49;38.17;;;15.15;;
65896;SDS011;52677;50.898;10.854;2022-12-10T01:01:49;40.63;;;16.92;;
65896;SDS011;52677;50.898;10.854;2022-12-10T01:03:51;38.90;;;15.82;;
65896;SDS011;52677;50.898;10.854;2022-12-10T01:05:53;40.70;;;16.85;;
65896;SDS011;52677;50.898;10.854;2022-12-10T01:07:54;42.92;;;18.63;;
65896;SDS011;52677;50.898;10.854;2022-12-10T01:09:54;37.80;;;16.00;;
65896;SDS011;52677;50.898;10.854;2022-12-10T01:11:56;44.10;;;16.20;;
65896;SDS011;52677;50.898;10.854;2022-12-10T01:14:01;38.50;;;15.15;;
65896;SDS011;52677;50.898;10.854;2022-12-10T01:16:03;43.53;;;16.30;;
65896;SDS011;52677;50.898;10.854;2022-12-10T01:18:05;43.65;;;16.90;;
65896;SDS011;52677;50.898;10.854;2022-12-10T01:20:05;45.78;;;17.23;;
65896;SDS011;52677;50.898;10.854;2022-12-10T01:22:06;34.15;;;15.05;;
65896;SDS011;52677;50.898;10.854;2022-12-10T01:24:07;39.05;;;15.15;;
65896;SDS011;52677;50.898;10.854;2022-12-10T01:26:10;38.33;;;15.60;;
65896;SDS011;52677;50.898;10.854;2022-12-10T01:28:12;37.08;;;16.20;;
65896;SDS011;52677;50.898;10.854;2022-12-10T01:30:12;37.15;;;15.68;;
65896;SDS011;52677;50.898;10.854;2022-12-10T01:32:12;37.92;;;15.32;;
65896;SDS011;52677;50.898;10.854;2022-12-10T01:34:13;36.22;;;15.50;;
65896;SDS011;52677;50.898;10.854;2022-12-10T01:36:17;36.47;;;15.38;;
65896;SDS011;52677;50.898;10.854;2022-12-10T01:38:23;44.05;;;17.23;;
65896;SDS011;52677;50.898;10.854;2022-12-10T01:40:23;39.20;;;15.30;;
65896;SDS011;52677;50.898;10.854;2022-12-10T01:42:25;40.47;;;16.02;;
65896;SDS011;52677;50.898;10.854;2022-12-10T01:46:27;37.60;;;16.52;;
65896;SDS011;52677;50.898;10.854;2022-12-10T01:48:29;41.55;;;14.30;;
65896;SDS011;52677;50.898;10.854;2022-12-10T01:50:29;40.78;;;17.00;;
65896;SDS011;52677;50.898;10.854;2022-12-10T01:52:30;39.05;;;14.02;;
65896;SDS011;52677;50.898;10.854;2022-12-10T01:54:32;43.10;;;16.15;;
65896;SDS011;52677;50.898;10.854;2022-12-10T01:56:36;44.00;;;16.77;;
65896;SDS011;52677;50.898;10.854;2022-12-10T01:58:40;40.72;;;16.70;;
65896;SDS011;52677;50.898;10.854;2022-12-10T02:00:43;42.25;;;16.00;;
65896;SDS011;52677;50.898;10.854;2022-12-10T02:02:59;34.50;;;14.55;;
65896;SDS011;52677;50.898;10.854;2022-12-10T02:07:52;44.78;;;15.18;;
65896;SDS011;52677;50.898;10.854;2022-12-10T02:12:46;38.35;;;14.95;;
65896;SDS011;52677;50.898;10.854;2022-12-10T02:16:57;43.70;;;15.18;;
65896;SDS011;52677;50.898;10.854;2022-12-10T02:19:04;39.85;;;15.52;;
65896;SDS011;52677;50.898;10.854;2022-12-10T02:21:33;40.40;;;15.93;;
65896;SDS011;52677;50.898;10.854;2022-12-10T02:23:37;42.80;;;15.55;;
65896;SDS011;52677;50.898;10.854;2022-12-10T02:25:46;40.92;;;15.68;;
65896;SDS011;52677;50.898;10.854;2022-12-10T02:27:54;42.53;;;15.00;;
65896;SDS011;52677;50.898;10.854;2022-12-10T02:30:02;38.83;;;16.17;;
65896;SDS011;52677;50.898;10.854;2022-12-10T02:32:05;41.10;;;14.63;;
65896;SDS011;52677;50.898;10.854;2022-12-10T02:34:08;35.80;;;14.50;;
65896;SDS011;52677;50.898;10.854;2022-12-10T02:38:17;32.08;;;13.75;;
65896;SDS011;52677;50.898;10.854;2022-12-10T02:40:24;38.17;;;14.63;;
65896;SDS011;52677;50.898;10.854;2022-12-10T02:42:30;33.20;;;13.77;;
65896;SDS011;52677;50.898;10.854;2022-12-10T02:44:35;42.30;;;15.55;;
65896;SDS011;52677;50.898;10.854;2022-12-10T02:48:40;36.58;;;14.15;;
65896;SDS011;52677;50.898;10.854;2022-12-10T02:50:41;28.85;;;13.85;;
65896;SDS011;52677;50.898;10.854;2022-12-10T02:52:42;35.47;;;13.35;;
65896;SDS011;52677;50.898;10.854;2022-12-10T02:54:43;37.40;;;14.90;;
65896;SDS011;52677;50.898;10.854;2022-12-10T02:56:48;30.25;;;12.60;;
65896;SDS011;52677;50.898;10.854;2022-12-10T03:01:42;33.75;;;12.65;;
65896;SDS011;52677;50.898;10.854;2022-12-10T03:03:59;33.40;;;13.00;;
65896;SDS011;52677;50.898;10.854;2022-12-10T03:06:16;30.85;;;11.75;;
65896;SDS011;52677;50.898;10.854;2022-12-10T03:12:35;25.15;;;10.73;;
65896;SDS011;52677;50.898;10.854;2022-12-10T03:14:44;31.33;;;12.25;;
65896;SDS011;52677;50.898;10.854;2022-12-10T03:16:54;31.35;;;12.45;;
65896;SDS011;52677;50.898;10.854;2022-12-10T03:18:57;34.13;;;14.77;;
65896;SDS011;52677;50.898;10.854;2022-12-10T03:21:03;33.53;;;13.02;;
65896;SDS011;52677;50.898;10.854;2022-12-10T03:23:07;36.72;;;14.32;;
65896;SDS011;52677;50.898;10.854;2022-12-10T03:25:10;37.17;;;14.68;;
65896;SDS011;52677;50.898;10.854;2022-12-10T03:27:15;30.73;;;12.60;;
65896;SDS011;52677;50.898;10.854;2022-12-10T03:30:02;29.27;;;11.43;;
65896;SDS011;52677;50.898;10.854;2022-12-10T03:31:43;24.25;;;10.27;;
65896;SDS011;52677;50.898;10.854;2022-12-10T03:33:45;32.15;;;11.88;;
65896;SDS011;52677;50.898;10.854;2022-12-10T03:35:46;30.75;;;12.00;;
65896;SDS011;52677;50.898;10.854;2022-12-10T03:37:48;27.77;;;11.75;;
65896;SDS011;52677;50.898;10.854;2022-12-10T03:39:49;26.10;;;12.07;;
65896;SDS011;52677;50.898;10.854;2022-12-10T03:41:50;29.40;;;11.70;;
65896;SDS011;52677;50.898;10.854;2022-12-10T03:43:51;32.00;;;11.40;;
65896;SDS011;52677;50.898;10.854;2022-12-10T03:45:56;22.35;;;10.38;;
65896;SDS011;52677;50.898;10.854;2022-12-10T03:47:57;23.75;;;11.02;;
65896;SDS011;52677;50.898;10.854;2022-12-10T03:49:57;28.27;;;10.85;;
65896;SDS011;52677;50.898;10.854;2022-12-10T03:51:57;23.38;;;10.73;;
65896;SDS011;52677;50.898;10.854;2022-12-10T03:53:57;26.98;;;10.63;;
65896;SDS011;52677;50.898;10.854;2022-12-10T03:55:58;30.95;;;13.07;;
65896;SDS011;52677;50.898;10.854;2022-12-10T03:57:58;27.67;;;12.25;;
65896;SDS011;52677;50.898;10.854;2022-12-10T03:59:58;30.23;;;12.68;;
65896;SDS011;52677;50.898;10.854;2022-12-10T04:01:59;23.55;;;11.27;;
65896;SDS011;52677;50.898;10.854;2022-12-10T04:03:59;32.63;;;10.98;;
65896;SDS011;52677;50.898;10.854;2022-12-10T04:06:03;27.05;;;11.05;;
65896;SDS011;52677;50.898;10.854;2022-12-10T04:08:05;25.05;;;11.18;;
65896;SDS011;52677;50.898;10.854;2022-12-10T04:10:05;30.08;;;13.00;;
65896;SDS011;52677;50.898;10.854;2022-12-10T04:12:06;23.33;;;10.65;;
65896;SDS011;52677;50.898;10.854;2022-12-10T04:14:07;25.17;;;11.02;;
65896;SDS011;52677;50.898;10.854;2022-12-10T04:16:27;21.38;;;10.63;;
65896;SDS011;52677;50.898;10.854;2022-12-10T04:20:30;22.65;;;10.15;;
65896;SDS011;52677;50.898;10.854;2022-12-10T04:22:49;26.15;;;11.10;;
65896;SDS011;52677;50.898;10.854;2022-12-10T04:25:08;25.48;;;10.45;;
65896;SDS011;52677;50.898;10.854;2022-12-10T04:27:33;24.65;;;10.95;;
65896;SDS011;52677;50.898;10.854;2022-12-10T04:29:36;24.73;;;11.32;;
65896;SDS011;52677;50.898;10.854;2022-12-10T04:31:37;25.88;;;10.70;;
65896;SDS011;52677;50.898;10.854;2022-12-10T04:33:37;23.30;;;10.88;;
65896;SDS011;52677;50.898;10.854;2022-12-10T04:35:37;21.40;;;9.68;;
65896;SDS011;52677;50.898;10.854;2022-12-10T04:37:38;21.98;;;10.13;;
65896;SDS011;52677;50.898;10.854;2022-12-10T04:39:38;26.38;;;11.10;;
65896;SDS011;52677;50.898;10.854;2022-12-10T04:41:40;22.50;;;9.95;;
65896;SDS011;52677;50.898;10.854;2022-12-10T04:43:42;20.20;;;9.15;;
65896;SDS011;52677;50.898;10.854;2022-12-10T04:45:42;22.50;;;9.93;;
65896;SDS011;52677;50.898;10.854;2022-12-10T04:47:43;19.55;;;9.18;;
65896;SDS011;52677;50.898;10.854;2022-12-10T04:49:43;21.75;;;9.98;;
65896;SDS011;52677;50.898;10.854;2022-12-10T04:51:44;20.55;;;10.10;;
65896;SDS011;52677;50.898;10.854;2022-12-10T04:53:44;21.73;;;10.30;;
65896;SDS011;52677;50.898;10.854;2022-12-10T04:55:44;19.48;;;8.68;;
65896;SDS011;52677;50.898;10.854;2022-12-10T04:57:45;19.02;;;9.40;;
65896;SDS011;52677;50.898;10.854;2022-12-10T04:59:45;21.05;;;9.80;;
65896;SDS011;52677;50.898;10.854;2022-12-10T05:01:45;18.55;;;9.95;;
65896;SDS011;52677;50.898;10.854;2022-12-10T05:03:46;19.83;;;9.38;;
65896;SDS011;52677;50.898;10.854;2022-12-10T05:05:46;18.20;;;9.02;;
65896;SDS011;52677;50.898;10.854;2022-12-10T05:07:47;19.80;;;9.10;;
65896;SDS011;52677;50.898;10.854;2022-12-10T05:09:47;23.02;;;9.48;;
65896;SDS011;52677;50.898;10.854;2022-12-10T05:11:47;21.42;;;9.57;;
65896;SDS011;52677;50.898;10.854;2022-12-10T05:13:48;17.88;;;9.27;;
65896;SDS011;52677;50.898;10.854;2022-12-10T05:15:48;20.02;;;10.02;;
65896;SDS011;52677;50.898;10.854;2022-12-10T05:17:48;16.30;;;8.02;;
65896;SDS011;52677;50.898;10.854;2022-12-10T05:19:48;16.02;;;8.55;;
65896;SDS011;52677;50.898;10.854;2022-12-10T05:21:49;19.15;;;9.60;;
65896;SDS011;52677;50.898;10.854;2022-12-10T05:24:08;16.73;;;9.27;;
65896;SDS011;52677;50.898;10.854;2022-12-10T05:28:10;17.52;;;8.25;;
65896;SDS011;52677;50.898;10.854;2022-12-10T05:30:10;17.83;;;8.43;;
65896;SDS011;52677;50.898;10.854;2022-12-10T05:32:11;15.32;;;7.93;;
65896;SDS011;52677;50.898;10.854;2022-12-10T05:34:11;15.68;;;8.35;;
65896;SDS011;52677;50.898;10.854;2022-12-10T05:36:13;14.35;;;7.93;;
65896;SDS011;52677;50.898;10.854;2022-12-10T05:38:15;17.85;;;8.68;;
65896;SDS011;52677;50.898;10.854;2022-12-10T05:40:15;17.67;;;8.85;;
65896;SDS011;52677;50.898;10.854;2022-12-10T05:42:16;19.98;;;9.10;;
65896;SDS011;52677;50.898;10.854;2022-12-10T05:44:16;20.75;;;9.05;;
65896;SDS011;52677;50.898;10.854;2022-12-10T05:46:18;19.35;;;9.27;;
65896;SDS011;52677;50.898;10.854;2022-12-10T05:48:20;20.20;;;8.57;;
65896;SDS011;52677;50.898;10.854;2022-12-10T05:50:20;18.23;;;8.98;;
65896;SDS011;52677;50.898;10.854;2022-12-10T05:52:21;18.15;;;9.10;;
65896;SDS011;52677;50.898;10.854;2022-12-10T05:54:21;19.83;;;10.20;;
65896;SDS011;52677;50.898;10.854;2022-12-10T05:56:22;19.58;;;10.27;;
65896;SDS011;52677;50.898;10.854;2022-12-10T05:58:23;21.73;;;10.20;;
65896;SDS011;52677;50.898;10.854;2022-12-10T06:00:23;22.67;;;11.15;;
65896;SDS011;52677;50.898;10.854;2022-12-10T06:02:24;22.20;;;10.50;;
65896;SDS011;52677;50.898;10.854;2022-12-10T06:04:24;23.25;;;10.38;;
65896;SDS011;52677;50.898;10.854;2022-12-10T06:06:26;23.85;;;10.00;;
65896;SDS011;52677;50.898;10.854;2022-12-10T06:08:28;18.42;;;9.23;;
65896;SDS011;52677;50.898;10.854;2022-12-10T06:10:29;25.75;;;11.32;;
65896;SDS011;52677;50.898;10.854;2022-12-10T06:12:29;21.88;;;10.02;;
65896;SDS011;52677;50.898;10.854;2022-12-10T06:14:29;19.25;;;8.80;;
65896;SDS011;52677;50.898;10.854;2022-12-10T06:16:30;23.33;;;10.75;;
65896;SDS011;52677;50.898;10.854;2022-12-10T06:18:30;23.25;;;9.88;;
65896;SDS011;52677;50.898;10.854;2022-12-10T06:20:30;21.48;;;10.25;;
65896;SDS011;52677;50.898;10.854;2022-12-10T06:22:31;21.13;;;9.68;;
65896;SDS011;52677;50.898;10.854;2022-12-10T06:24:31;19.33;;;9.55;;
65896;SDS011;52677;50.898;10.854;2022-12-10T06:26:31;22.27;;;10.82;;
65896;SDS011;52677;50.898;10.854;2022-12-10T06:28:32;25.00;;;12.10;;
65896;SDS011;52677;50.898;10.854;2022-12-10T06:30:32;22.30;;;10.80;;
65896;SDS011;52677;50.898;10.854;2022-12-10T06:32:33;20.23;;;10.00;;
65896;SDS011;52677;50.898;10.854;2022-12-10T06:34:34;23.30;;;10.70;;
65896;SDS011;52677;50.898;10.854;2022-12-10T06:36:34;24.75;;;11.25;;
65896;SDS011;52677;50.898;10.854;2022-12-10T06:38:35;24.27;;;11.25;;
65896;SDS011;52677;50.898;10.854;2022-12-10T06:40:38;24.25;;;10.57;;
65896;SDS011;52677;50.898;10.854;2022-12-10T06:42:39;22.58;;;11.13;;
65896;SDS011;52677;50.898;10.854;2022-12-10T06:44:39;22.98;;;10.50;;
65896;SDS011;52677;50.898;10.854;2022-12-10T06:46:40;21.38;;;9.40;;
65896;SDS011;52677;50.898;10.854;2022-12-10T06:48:41;22.80;;;9.70;;
65896;SDS011;52677;50.898;10.854;2022-12-10T06:50:41;23.67;;;11.27;;
65896;SDS011;52677;50.898;10.854;2022-12-10T06:52:42;23.60;;;10.15;;
65896;SDS011;52677;50.898;10.854;2022-12-10T06:54:42;23.33;;;10.93;;
65896;SDS011;52677;50.898;10.854;2022-12-10T06:56:42;23.38;;;10.55;;
65896;SDS011;52677;50.898;10.854;2022-12-10T06:58:43;21.63;;;10.25;;
65896;SDS011;52677;50.898;10.854;2022-12-10T07:00:44;20.30;;;9.52;;
65896;SDS011;52677;50.898;10.854;2022-12-10T07:02:44;23.83;;;11.63;;
65896;SDS011;52677;50.898;10.854;2022-12-10T07:04:44;23.50;;;9.98;;
65896;SDS011;52677;50.898;10.854;2022-12-10T07:06:44;20.80;;;9.98;;
65896;SDS011;52677;50.898;10.854;2022-12-10T07:08:45;21.15;;;10.05;;
65896;SDS011;52677;50.898;10.854;2022-12-10T07:10:46;21.83;;;9.52;;
65896;SDS011;52677;50.898;10.854;2022-12-10T07:12:46;22.38;;;9.25;;
65896;SDS011;52677;50.898;10.854;2022-12-10T07:14:47;23.10;;;10.20;;
65896;SDS011;52677;50.898;10.854;2022-12-10T07:16:47;20.23;;;9.85;;
65896;SDS011;52677;50.898;10.854;2022-12-10T07:18:48;20.38;;;9.95;;
65896;SDS011;52677;50.898;10.854;2022-12-10T07:20:50;19.50;;;10.00;;
65896;SDS011;52677;50.898;10.854;2022-12-10T07:22:50;18.42;;;8.60;;
65896;SDS011;52677;50.898;10.854;2022-12-10T07:24:50;21.63;;;9.95;;
65896;SDS011;52677;50.898;10.854;2022-12-10T07:26:51;20.92;;;9.45;;
65896;SDS011;52677;50.898;10.854;2022-12-10T07:28:52;19.55;;;9.32;;
65896;SDS011;52677;50.898;10.854;2022-12-10T07:30:52;22.85;;;10.20;;
65896;SDS011;52677;50.898;10.854;2022-12-10T07:33:00;21.17;;;10.32;;
65896;SDS011;52677;50.898;10.854;2022-12-10T07:35:01;23.65;;;9.90;;
65896;SDS011;52677;50.898;10.854;2022-12-10T07:37:01;23.67;;;9.50;;
65896;SDS011;52677;50.898;10.854;2022-12-10T07:39:04;21.88;;;10.25;;
65896;SDS011;52677;50.898;10.854;2022-12-10T07:41:06;21.23;;;9.38;;
65896;SDS011;52677;50.898;10.854;2022-12-10T07:43:09;23.23;;;10.65;;
65896;SDS011;52677;50.898;10.854;2022-12-10T07:45:09;22.73;;;9.98;;
65896;SDS011;52677;50.898;10.854;2022-12-10T07:47:10;24.95;;;10.98;;
65896;SDS011;52677;50.898;10.854;2022-12-10T07:49:11;23.98;;;10.45;;
65896;SDS011;52677;50.898;10.854;2022-12-10T07:51:11;23.17;;;10.02;;
65896;SDS011;52677;50.898;10.854;2022-12-10T07:53:12;21.45;;;10.27;;
65896;SDS011;52677;50.898;10.854;2022-12-10T07:55:12;23.45;;;11.27;;
65896;SDS011;52677;50.898;10.854;2022-12-10T07:57:13;25.20;;;12.48;;
65896;SDS011;52677;50.898;10.854;2022-12-10T07:59:14;24.33;;;10.00;;
65896;SDS011;52677;50.898;10.854;2022-12-10T08:01:15;27.23;;;11.30;;
65896;SDS011;52677;50.898;10.854;2022-12-10T08:03:17;25.40;;;10.88;;
65896;SDS011;52677;50.898;10.854;2022-12-10T08:05:17;28.63;;;11.43;;
65896;SDS011;52677;50.898;10.854;2022-12-10T08:07:18;23.80;;;10.85;;
65896;SDS011;52677;50.898;10.854;2022-12-10T08:09:18;25.20;;;10.95;;
65896;SDS011;52677;50.898;10.854;2022-12-10T08:11:19;25.17;;;10.90;;
65896;SDS011;52677;50.898;10.854;2022-12-10T08:13:21;26.70;;;11.40;;
65896;SDS011;52677;50.898;10.854;2022-12-10T08:15:21;26.50;;;10.85;;
65896;SDS011;52677;50.898;10.854;2022-12-10T08:17:21;24.33;;;10.55;;
65896;SDS011;52677;50.898;10.854;2022-12-10T08:19:22;25.50;;;9.93;;
65896;SDS011;52677;50.898;10.854;2022-12-10T08:21:23;27.65;;;12.85;;
65896;SDS011;52677;50.898;10.854;2022-12-10T08:23:24;26.20;;;11.15;;
65896;SDS011;52677;50.898;10.854;2022-12-10T08:25:25;28.52;;;11.27;;
65896;SDS011;52677;50.898;10.854;2022-12-10T08:27:25;30.38;;;11.77;;
65896;SDS011;52677;50.898;10.854;2022-12-10T08:29:25;28.10;;;11.48;;
65896;SDS011;52677;50.898;10.854;2022-12-10T08:31:26;27.58;;;10.90;;
65896;SDS011;52677;50.898;10.854;2022-12-10T08:33:27;28.65;;;11.77;;
65896;SDS011;52677;50.898;10.854;2022-12-10T08:35:27;24.25;;;11.43;;
65896;SDS011;52677;50.898;10.854;2022-12-10T08:37:28;25.45;;;11.32;;
65896;SDS011;52677;50.898;10.854;2022-12-10T08:39:28;20.67;;;9.85;;
65896;SDS011;52677;50.898;10.854;2022-12-10T08:41:28;25.40;;;10.27;;
65896;SDS011;52677;50.898;10.854;2022-12-10T08:43:29;24.38;;;10.52;;
65896;SDS011;52677;50.898;10.854;2022-12-10T08:45:29;26.15;;;10.80;;
65896;SDS011;52677;50.898;10.854;2022-12-10T08:47:29;24.92;;;11.63;;
65896;SDS011;52677;50.898;10.854;2022-12-10T08:49:30;22.08;;;10.90;;
65896;SDS011;52677;50.898;10.854;2022-12-10T08:51:30;25.67;;;12.05;;
65896;SDS011;52677;50.898;10.854;2022-12-10T08:53:31;27.33;;;11.00;;
65896;SDS011;52677;50.898;10.854;2022-12-10T08:55:31;24.02;;;10.52;;
65896;SDS011;52677;50.898;10.854;2022-12-10T08:57:31;28.30;;;12.85;;
65896;SDS011;52677;50.898;10.854;2022-12-10T08:59:32;24.65;;;11.05;;
65896;SDS011;52677;50.898;10.854;2022-12-10T09:01:32;25.92;;;11.18;;
65896;SDS011;52677;50.898;10.854;2022-12-10T09:03:33;24.35;;;10.93;;
65896;SDS011;52677;50.898;10.854;2022-12-10T09:05:34;28.90;;;12.73;;
65896;SDS011;52677;50.898;10.854;2022-12-10T09:07:34;26.38;;;11.38;;
65896;SDS011;52677;50.898;10.854;2022-12-10T09:09:35;28.17;;;12.73;;
65896;SDS011;52677;50.898;10.854;2022-12-10T09:11:35;28.48;;;12.43;;
65896;SDS011;52677;50.898;10.854;2022-12-10T09:13:36;25.98;;;10.73;;
65896;SDS011;52677;50.898;10.854;2022-12-10T09:15:36;26.60;;;11.73;;
65896;SDS011;52677;50.898;10.854;2022-12-10T09:17:37;24.17;;;11.20;;
65896;SDS011;52677;50.898;10.854;2022-12-10T09:19:38;25.05;;;11.32;;
65896;SDS011;52677;50.898;10.854;2022-12-10T09:21:38;25.63;;;12.38;;
65896;SDS011;52677;50.898;10.854;2022-12-10T09:23:39;29.92;;;11.15;;
65896;SDS011;52677;50.898;10.854;2022-12-10T09:25:40;25.88;;;11.00;;
65896;SDS011;52677;50.898;10.854;2022-12-10T09:27:40;24.70;;;11.63;;
65896;SDS011;52677;50.898;10.854;2022-12-10T09:29:41;27.58;;;11.57;;
65896;SDS011;52677;50.898;10.854;2022-12-10T09:31:41;28.05;;;11.05;;
65896;SDS011;52677;50.898;10.854;2022-12-10T09:33:42;31.88;;;13.50;;
65896;SDS011;52677;50.898;10.854;2022-12-10T09:35:43;22.80;;;10.65;;
65896;SDS011;52677;50.898;10.854;2022-12-10T09:37:43;28.27;;;13.20;;
65896;SDS011;52677;50.898;10.854;2022-12-10T09:39:43;31.08;;;12.45;;
65896;SDS011;52677;50.898;10.854;2022-12-10T09:43:51;29.70;;;11.95;;
65896;SDS011;52677;50.898;10.854;2022-12-10T09:50:30;26.73;;;11.70;;
65896;SDS011;52677;50.898;10.854;2022-12-10T09:52:37;27.15;;;12.13;;
65896;SDS011;52677;50.898;10.854;2022-12-10T09:54:43;28.88;;;10.73;;
65896;SDS011;52677;50.898;10.854;2022-12-10T09:56:47;28.75;;;11.70;;
65896;SDS011;52677;50.898;10.854;2022-12-10T09:58:49;29.52;;;12.05;;
65896;SDS011;52677;50.898;10.854;2022-12-10T10:00:52;28.13;;;12.15;;
65896;SDS011;52677;50.898;10.854;2022-12-10T10:02:59;28.80;;;11.68;;
65896;SDS011;52677;50.898;10.854;2022-12-10T10:07:07;28.30;;;13.32;;
65896;SDS011;52677;50.898;10.854;2022-12-10T10:09:16;27.25;;;11.70;;
65896;SDS011;52677;50.898;10.854;2022-12-10T10:11:19;29.23;;;11.45;;
65896;SDS011;52677;50.898;10.854;2022-12-10T10:13:33;24.90;;;11.52;;
65896;SDS011;52677;50.898;10.854;2022-12-10T10:15:42;27.17;;;11.02;;
65896;SDS011;52677;50.898;10.854;2022-12-10T10:17:44;28.55;;;12.82;;
65896;SDS011;52677;50.898;10.854;2022-12-10T10:21:48;27.48;;;12.02;;
65896;SDS011;52677;50.898;10.854;2022-12-10T10:23:49;32.65;;;12.52;;
65896;SDS011;52677;50.898;10.854;2022-12-10T10:25:50;29.65;;;12.50;;
65896;SDS011;52677;50.898;10.854;2022-12-10T10:27:50;30.58;;;13.07;;
65896;SDS011;52677;50.898;10.854;2022-12-10T10:29:51;29.05;;;12.13;;
65896;SDS011;52677;50.898;10.854;2022-12-10T10:34:19;27.45;;;11.90;;
65896;SDS011;52677;50.898;10.854;2022-12-10T10:36:32;30.67;;;13.43;;
65896;SDS011;52677;50.898;10.854;2022-12-10T10:38:34;30.55;;;12.88;;
65896;SDS011;52677;50.898;10.854;2022-12-10T10:40:41;28.25;;;11.57;;
65896;SDS011;52677;50.898;10.854;2022-12-10T10:42:44;34.50;;;13.48;;
65896;SDS011;52677;50.898;10.854;2022-12-10T10:44:45;28.27;;;12.15;;
65896;SDS011;52677;50.898;10.854;2022-12-10T10:46:46;33.00;;;12.35;;
65896;SDS011;52677;50.898;10.854;2022-12-10T10:48:48;28.20;;;12.73;;
65896;SDS011;52677;50.898;10.854;2022-12-10T10:50:55;29.20;;;13.43;;
65896;SDS011;52677;50.898;10.854;2022-12-10T10:55:31;24.70;;;11.23;;
65896;SDS011;52677;50.898;10.854;2022-12-10T10:57:35;28.92;;;12.35;;
65896;SDS011;52677;50.898;10.854;2022-12-10T10:59:37;30.90;;;13.75;;
65896;SDS011;52677;50.898;10.854;2022-12-10T11:01:54;31.15;;;13.18;;
65896;SDS011;52677;50.898;10.854;2022-12-10T11:04:04;27.65;;;11.73;;
65896;SDS011;52677;50.898;10.854;2022-12-10T11:06:05;29.92;;;12.20;;
65896;SDS011;52677;50.898;10.854;2022-12-10T11:08:16;37.47;;;15.13;;
65896;SDS011;52677;50.898;10.854;2022-12-10T11:10:21;28.75;;;11.98;;
65896;SDS011;52677;50.898;10.854;2022-12-10T11:12:37;24.00;;;11.15;;
65896;SDS011;52677;50.898;10.854;2022-12-10T11:14:39;28.13;;;12.82;;
65896;SDS011;52677;50.898;10.854;2022-12-10T11:16:43;22.73;;;10.27;;
65896;SDS011;52677;50.898;10.854;2022-12-10T11:19:04;30.38;;;13.00;;
65896;SDS011;52677;50.898;10.854;2022-12-10T11:23:13;30.30;;;13.10;;
65896;SDS011;52677;50.898;10.854;2022-12-10T11:25:15;33.47;;;14.80;;
65896;SDS011;52677;50.898;10.854;2022-12-10T11:27:29;30.75;;;13.50;;
65896;SDS011;52677;50.898;10.854;2022-12-10T11:29:44;29.88;;;13.07;;
65896;SDS011;52677;50.898;10.854;2022-12-10T11:34:19;31.50;;;13.45;;
65896;SDS011;52677;50.898;10.854;2022-12-10T11:36:25;36.30;;;14.02;;
65896;SDS011;52677;50.898;10.854;2022-12-10T11:45:02;30.92;;;12.38;;
65896;SDS011;52677;50.898;10.854;2022-12-10T11:51:37;30.60;;;13.90;;
65896;SDS011;52677;50.898;10.854;2022-12-10T11:56:47;31.75;;;16.02;;
65896;SDS011;52677;50.898;10.854;2022-12-10T11:59:07;33.22;;;17.48;;
65896;SDS011;52677;50.898;10.854;2022-12-10T12:03:36;30.98;;;13.15;;
65896;SDS011;52677;50.898;10.854;2022-12-10T12:10:11;32.83;;;14.35;;
65896;SDS011;52677;50.898;10.854;2022-12-10T12:14:57;35.45;;;14.48;;
65896;SDS011;52677;50.898;10.854;2022-12-10T12:19:03;32.75;;;14.25;;
65896;SDS011;52677;50.898;10.854;2022-12-10T12:21:10;28.75;;;13.85;;
65896;SDS011;52677;50.898;10.854;2022-12-10T12:23:18;33.40;;;14.18;;
65896;SDS011;52677;50.898;10.854;2022-12-10T12:25:26;26.42;;;13.00;;
65896;SDS011;52677;50.898;10.854;2022-12-10T12:29:34;28.98;;;11.40;;
65896;SDS011;52677;50.898;10.854;2022-12-10T12:31:42;28.58;;;12.20;;
65896;SDS011;52677;50.898;10.854;2022-12-10T12:33:47;26.23;;;12.13;;
65896;SDS011;52677;50.898;10.854;2022-12-10T12:36:04;22.00;;;10.82;;
65896;SDS011;52677;50.898;10.854;2022-12-10T12:40:33;25.65;;;12.25;;
65896;SDS011;52677;50.898;10.854;2022-12-10T12:42:45;26.10;;;11.95;;
65896;SDS011;52677;50.898;10.854;2022-12-10T12:45:04;26.80;;;11.50;;
65896;SDS011;52677;50.898;10.854;2022-12-10T12:49:48;22.23;;;11.57;;
65896;SDS011;52677;50.898;10.854;2022-12-10T12:52:50;21.42;;;9.85;;
65896;SDS011;52677;50.898;10.854;2022-12-10T12:54:26;22.77;;;10.95;;
65896;SDS011;52677;50.898;10.854;2022-12-10T13:03:43;24.70;;;11.25;;
65896;SDS011;52677;50.898;10.854;2022-12-10T13:05:45;25.83;;;12.82;;
65896;SDS011;52677;50.898;10.854;2022-12-10T13:08:15;21.60;;;11.00;;
65896;SDS011;52677;50.898;10.854;2022-12-10T13:14:17;20.83;;;10.63;;
65896;SDS011;52677;50.898;10.854;2022-12-10T13:18:46;33.85;;;15.55;;
65896;SDS011;52677;50.898;10.854;2022-12-10T13:28:03;27.00;;;14.18;;
65896;SDS011;52677;50.898;10.854;2022-12-10T13:30:37;29.95;;;14.43;;